Time;durP1;ratioP1;P1;durP2;ratioP2;P2;SDS_P1;SDS_P2;PMS_P1;PMS_P2;Temp;Humidity;BMP_temperature;BMP_pressure;BME280_temperature;BME280_humidity;BME280_pressure;Samples;Min_cycle;Max_cycle;Signal;HPM_P1;HPM_P2
2021/10/22 00:02:30;;;;;;;12.97;3.70;;;;;;;9.22;55.92;97976.02;2152726;82;20950;-81
2021/10/22 00:05:33;;;;;;;10.57;3.57;;;;;;;9.26;55.91;97978.64;2152497;83;20931;-80
2021/10/22 00:08:33;;;;;;;7.37;3.27;;;;;;;9.28;55.93;97976.05;2152659;83;20941;-80
2021/10/22 00:11:35;;;;;;;9.53;3.30;;;;;;;9.26;55.98;97976.47;2152792;83;20965;-80
2021/10/22 00:14:35;;;;;;;6.23;3.23;;;;;;;9.30;55.98;97989.07;2059652;87;20998;-80
2021/10/22 00:17:37;;;;;;;6.30;2.53;;;;;;;9.32;56.00;97990.81;2152777;82;21345;-79
2021/10/22 00:20:37;;;;;;;7.60;2.90;;;;;;;9.35;55.84;97988.65;2059970;86;21200;-80
2021/10/22 00:23:38;;;;;;;10.30;2.47;;;;;;;9.40;55.84;97998.66;2152935;82;20958;-81
2021/10/22 00:26:38;;;;;;;4.87;2.30;;;;;;;9.44;55.79;97987.38;2153072;83;20953;-80
2021/10/22 00:29:39;;;;;;;13.63;2.57;;;;;;;9.51;55.62;97987.39;2152512;83;20950;-81
2021/10/22 00:32:39;;;;;;;4.90;2.67;;;;;;;9.54;55.66;97984.83;2152866;83;21021;-81
2021/10/22 00:35:40;;;;;;;8.50;2.60;;;;;;;9.57;55.53;97978.32;2152990;83;21334;-79
2021/10/22 00:38:41;;;;;;;8.90;2.43;;;;;;;9.58;55.52;97972.67;2060267;86;20949;-81
2021/10/22 00:41:42;;;;;;;6.67;2.50;;;;;;;9.56;55.46;97962.25;2152964;82;20978;-82
2021/10/22 00:44:42;;;;;;;6.87;2.70;;;;;;;9.62;55.44;97976.16;2060155;86;21089;-81
2021/10/22 00:47:43;;;;;;;5.00;2.40;;;;;;;9.63;55.45;97981.37;2153384;82;20977;-80
2021/10/22 00:50:44;;;;;;;6.53;2.77;;;;;;;9.65;55.41;97991.80;2060022;87;20965;-80
2021/10/22 00:53:45;;;;;;;6.43;2.60;;;;;;;9.66;55.52;97987.89;2152782;82;20911;-80
2021/10/22 00:56:46;;;;;;;9.33;2.80;;;;;;;9.64;55.64;98006.99;2060018;86;20926;-80
2021/10/22 00:59:46;;;;;;;5.50;2.10;;;;;;;9.61;55.76;98006.98;2153241;82;20946;-81
2021/10/22 01:02:47;;;;;;;7.00;2.50;;;;;;;9.60;55.76;98020.88;2153478;82;21013;-80
2021/10/22 01:05:48;;;;;;;4.77;2.17;;;;;;;9.60;55.74;98020.88;2153035;83;20946;-80
2021/10/22 01:08:48;;;;;;;5.50;2.30;;;;;;;9.62;55.83;98035.66;2153122;83;20994;-81
2021/10/22 01:11:49;;;;;;;11.43;2.57;;;;;;;9.64;55.89;98035.66;2153118;83;20988;-80
2021/10/22 01:14:51;;;;;;;6.37;2.70;;;;;;;9.65;55.92;98032.19;2151398;83;21005;-81
2021/10/22 01:17:52;;;;;;;5.60;2.40;;;;;;;9.66;56.01;98056.08;2157262;82;20970;-81
2021/10/22 01:20:53;;;;;;;7.00;2.97;;;;;;;9.66;56.18;98056.08;2158964;83;20899;-82
2021/10/22 01:23:54;;;;;;;15.77;1.90;;;;;;;9.68;56.46;98060.42;2060397;86;20970;-80
2021/10/22 01:26:54;;;;;;;4.77;1.63;;;;;;;9.76;56.76;98074.78;2153093;82;20958;-82
2021/10/22 01:29:55;;;;;;;6.40;1.50;;;;;;;9.84;56.78;98076.97;2152911;83;20930;-80
2021/10/22 01:32:55;;;;;;;1.93;1.20;;;;;;;9.87;56.98;98063.95;2060052;87;21025;-80
2021/10/22 01:35:56;;;;;;;3.87;1.20;;;;;;;9.83;57.13;98071.32;2152998;82;20936;-81
2021/10/22 01:38:57;;;;;;;3.80;1.43;;;;;;;9.78;57.43;98083.04;2152742;83;21290;-79
2021/10/22 01:41:57;;;;;;;4.53;1.37;;;;;;;9.76;57.95;98089.98;2153075;83;20966;-80
2021/10/22 01:44:58;;;;;;;5.27;1.00;;;;;;;9.69;58.67;98088.66;2151312;83;21032;-81
2021/10/22 01:47:58;;;;;;;4.00;1.30;;;;;;;9.54;58.86;98105.97;2157268;83;20918;-79
2021/10/22 01:50:59;;;;;;;2.17;1.10;;;;;;;9.42;59.02;98097.20;2159611;83;20984;-80
2021/10/22 01:54:00;;;;;;;2.67;1.10;;;;;;;9.29;59.79;98102.79;2156445;83;20995;-78
2021/10/22 01:57:01;;;;;;;3.47;1.30;;;;;;;9.19;59.97;98107.51;2152999;83;21357;-80
2021/10/22 02:00:03;;;;;;;5.53;1.13;;;;;;;9.09;59.93;98125.24;2060095;87;21254;-79
2021/10/22 02:03:03;;;;;;;4.30;0.90;;;;;;;9.03;59.35;98127.80;2152782;82;20974;-80
2021/10/22 02:06:04;;;;;;;2.17;0.97;;;;;;;8.98;58.60;98143.82;2060338;87;20950;-82
2021/10/22 02:09:04;;;;;;;7.00;1.10;;;;;;;8.89;58.41;98139.42;2153187;82;20950;-82
2021/10/22 02:12:05;;;;;;;4.20;1.30;;;;;;;8.77;58.49;98151.91;2152781;83;20966;-82
2021/10/22 02:15:05;;;;;;;5.13;1.40;;;;;;;8.67;58.75;98143.99;2152871;83;20986;-79
2021/10/22 02:18:06;;;;;;;5.47;1.13;;;;;;;8.57;58.95;98150.84;2152990;83;20926;-79
2021/10/22 02:21:06;;;;;;;4.27;1.60;;;;;;;8.47;59.43;98145.99;2152557;83;21418;-79
2021/10/22 02:24:07;;;;;;;5.20;1.20;;;;;;;8.36;59.91;98155.86;2152946;83;20974;-81
2021/10/22 02:27:08;;;;;;;4.43;1.70;;;;;;;8.28;59.92;98142.75;2153296;83;20956;-81
2021/10/22 02:30:08;;;;;;;5.13;1.40;;;;;;;8.21;59.69;98154.81;2152920;83;21338;-80
2021/10/22 02:33:09;;;;;;;5.63;1.43;;;;;;;8.18;59.80;98177.31;2152612;83;20926;-80
2021/10/22 02:36:09;;;;;;;5.23;1.73;;;;;;;8.12;59.63;98180.72;2153278;83;20954;-79
2021/10/22 02:39:10;;;;;;;7.30;1.30;;;;;;;8.07;59.58;98192.79;2152878;83;20922;-80
2021/10/22 02:42:10;;;;;;;6.27;1.37;;;;;;;8.00;59.35;98203.97;2153258;83;20942;-80
2021/10/22 02:45:11;;;;;;;5.47;1.60;;;;;;;7.93;58.92;98195.66;2060752;86;20989;-80
2021/10/22 02:48:11;;;;;;;8.73;2.50;;;;;;;7.87;58.92;98197.76;2152480;83;21302;-80
2021/10/22 02:51:12;;;;;;;7.80;1.80;;;;;;;7.83;58.68;98237.97;2152591;83;20989;-80
2021/10/22 02:54:12;;;;;;;7.60;2.23;;;;;;;7.79;58.51;98223.16;2152638;83;20969;-80
2021/10/22 02:57:13;;;;;;;6.47;1.80;;;;;;;7.73;57.88;98233.05;2152864;83;20926;-80
2021/10/22 03:00:14;;;;;;;6.00;1.50;;;;;;;7.70;57.99;98236.03;2059896;86;21009;-80
2021/10/22 03:03:15;;;;;;;6.77;1.53;;;;;;;7.64;58.00;98243.31;2152910;82;20989;-78
2021/10/22 03:06:18;;;;;;;7.30;1.97;;;;;;;7.56;57.57;98248.41;2152439;83;20999;-81
2021/10/22 03:09:18;;;;;;;11.03;2.20;;;;;;;7.51;57.20;98261.75;2153181;83;21317;-81
2021/10/22 03:12:19;;;;;;;9.07;1.97;;;;;;;7.45;57.31;98265.56;2153165;83;20974;-80
2021/10/22 03:15:20;;;;;;;7.37;1.83;;;;;;;7.39;57.31;98263.30;2060253;87;21389;-80
2021/10/22 03:18:20;;;;;;;10.13;2.50;;;;;;;7.30;57.55;98261.44;2153289;83;21314;-81
2021/10/22 03:21:22;;;;;;;8.67;2.53;;;;;;;7.24;57.83;98273.02;2153417;83;20930;-82
2021/10/22 03:24:23;;;;;;;9.37;2.13;;;;;;;7.21;57.93;98279.45;2060650;86;21015;-80
2021/10/22 03:27:26;;;;;;;7.67;2.03;;;;;;;7.14;58.17;98276.31;2152754;82;21373;-80
2021/10/22 03:30:26;;;;;;;11.37;2.50;;;;;;;7.07;58.56;98274.47;2152966;82;20930;-81
2021/10/22 03:33:26;;;;;;;6.63;1.83;;;;;;;7.03;58.78;98278.31;2153185;83;21017;-81
2021/10/22 03:36:29;;;;;;;7.07;2.53;;;;;;;7.01;59.22;98293.41;2153484;83;20982;-80
2021/10/22 03:39:30;;;;;;;8.87;2.60;;;;;;;6.95;59.42;98294.17;2060615;87;21385;-80
2021/10/22 03:42:30;;;;;;;6.73;1.87;;;;;;;6.90;59.83;98290.59;2152813;82;20942;-80
2021/10/22 03:45:31;;;;;;;9.00;2.20;;;;;;;6.86;60.00;98297.88;2152707;83;21009;-81
2021/10/22 03:48:32;;;;;;;12.67;2.20;;;;;;;6.84;60.36;98311.66;2152789;83;21041;-81
2021/10/22 03:51:33;;;;;;;7.90;1.90;;;;;;;6.77;60.47;98302.90;2152904;83;20938;-79
2021/10/22 03:54:34;;;;;;;14.80;2.57;;;;;;;6.74;60.64;98294.19;2059594;87;21006;-80
2021/10/22 03:57:34;;;;;;;13.53;2.60;;;;;;;6.70;60.95;98303.20;2152190;82;20942;-79
2021/10/22 04:00:34;;;;;;;7.37;2.47;;;;;;;6.65;60.95;98305.27;2151970;83;21314;-80
2021/10/22 04:03:35;;;;;;;9.87;2.40;;;;;;;6.61;61.16;98316.42;2151035;82;21388;-80
2021/10/22 04:06:35;;;;;;;8.67;2.20;;;;;;;6.59;61.28;98301.27;2151885;83;20969;-81
2021/10/22 04:09:36;;;;;;;7.33;2.63;;;;;;;6.56;61.31;98305.09;2152086;83;20974;-79
2021/10/22 04:12:36;;;;;;;13.27;3.03;;;;;;;6.55;61.45;98295.56;2151552;83;20996;-81
2021/10/22 04:15:38;;;;;;;8.53;2.50;;;;;;;6.53;61.68;98306.33;2151205;83;21009;-81
2021/10/22 04:18:38;;;;;;;8.40;2.70;;;;;;;6.51;61.70;98300.25;2058141;87;20977;-79
2021/10/22 04:21:39;;;;;;;12.33;3.07;;;;;;;6.46;62.27;98302.75;2151333;83;20942;-81
2021/10/22 04:24:41;;;;;;;8.53;2.10;;;;;;;6.44;62.36;98303.14;2151611;83;21733;-81
2021/10/22 04:27:42;;;;;;;7.50;2.53;;;;;;;6.38;62.60;98312.09;2151241;83;20969;-81
2021/10/22 04:30:42;;;;;;;8.60;2.70;;;;;;;6.33;62.43;98314.59;2151053;83;20942;-80
2021/10/22 04:33:43;;;;;;;9.20;2.87;;;;;;;6.30;62.94;98318.84;2151287;83;20954;-81
2021/10/22 04:36:44;;;;;;;11.43;3.23;;;;;;;6.28;63.27;98330.91;2151660;83;20930;-81
2021/10/22 04:43:03;;;;;;;9.80;2.10;;;;;;;6.20;63.58;98335.05;2151675;82;20998;-80
2021/10/22 04:46:04;;;;;;;13.03;2.50;;;;;;;6.15;63.69;98330.20;2151395;83;21031;-81
2021/10/22 04:49:04;;;;;;;8.70;3.33;;;;;;;6.11;63.79;98334.44;2151586;83;20914;-81
2021/10/22 04:52:05;;;;;;;10.13;3.33;;;;;;;6.09;64.15;98342.60;2151662;83;21001;-80
2021/10/22 04:55:05;;;;;;;13.50;3.03;;;;;;;6.04;64.45;98345.06;2151504;83;21017;-81
2021/10/22 04:58:06;;;;;;;13.33;3.87;;;;;;;6.02;64.31;98342.86;2152548;83;20997;-80
2021/10/22 05:01:07;;;;;;;15.93;3.80;;;;;;;5.99;64.40;98337.61;2152212;83;20946;-80
2021/10/22 05:04:07;;;;;;;12.07;3.53;;;;;;;6.02;64.53;98341.98;2152181;82;20993;-80
2021/10/22 05:07:08;;;;;;;14.33;2.73;;;;;;;6.01;63.99;98351.47;2059841;87;20966;-81
2021/10/22 05:10:08;;;;;;;10.53;3.57;;;;;;;5.97;64.05;98348.36;2152468;82;20973;-80
2021/10/22 05:13:09;;;;;;;11.57;3.00;;;;;;;5.94;64.08;98353.47;2059468;87;20954;-80
2021/10/22 05:16:10;;;;;;;14.13;3.87;;;;;;;5.94;64.10;98356.06;2152457;83;21214;-80
2021/10/22 05:19:12;;;;;;;14.00;3.50;;;;;;;5.93;63.70;98358.62;2152800;83;20942;-79
2021/10/22 05:22:13;;;;;;;14.27;3.57;;;;;;;5.90;64.20;98363.73;2151695;83;20949;-79
2021/10/22 05:25:14;;;;;;;17.73;3.57;;;;;;;5.88;63.87;98362.37;2152138;83;20990;-80
2021/10/22 05:28:15;;;;;;;12.83;3.70;;;;;;;5.87;63.91;98363.21;2059189;87;21005;-80
2021/10/22 05:31:15;;;;;;;11.07;3.40;;;;;;;5.87;63.95;98368.39;2151348;82;20954;-79
2021/10/22 05:34:16;;;;;;;8.20;3.07;;;;;;;5.91;63.61;98371.53;2151622;83;20977;-80
2021/10/22 05:37:18;;;;;;;18.07;3.60;;;;;;;5.92;63.52;98381.48;2151953;83;21342;-79
2021/10/22 05:40:19;;;;;;;15.00;3.50;;;;;;;5.93;63.58;98391.88;2151284;83;20954;-80
2021/10/22 05:43:19;;;;;;;23.23;5.57;;;;;;;5.94;63.45;98391.03;2151593;83;20965;-80
2021/10/22 05:46:20;;;;;;;10.37;3.23;;;;;;;6.09;63.94;98401.32;2151596;83;20978;-81
2021/10/22 05:49:20;;;;;;;14.90;3.60;;;;;;;6.21;62.74;98402.89;2152062;83;20966;-80
2021/10/22 05:52:21;;;;;;;9.63;3.40;;;;;;;6.18;62.59;98418.38;2151649;83;21004;-79
2021/10/22 05:55:21;;;;;;;21.13;3.50;;;;;;;6.15;62.58;98429.55;2151641;83;20970;-80
2021/10/22 05:58:22;;;;;;;10.57;2.93;;;;;;;6.16;62.49;98436.48;2059474;87;20973;-80
2021/10/22 06:01:23;;;;;;;14.87;3.40;;;;;;;6.21;62.25;98442.64;2151761;83;20937;-79
2021/10/22 06:04:23;;;;;;;13.00;3.83;;;;;;;6.25;62.12;98453.53;2150758;82;20966;-79
2021/10/22 06:07:24;;;;;;;10.60;4.30;;;;;;;6.31;61.88;98451.50;2150964;83;21317;-79
2021/10/22 06:10:24;;;;;;;10.70;3.70;;;;;;;6.34;61.55;98452.44;2151035;83;20942;-81
2021/10/22 06:13:25;;;;;;;14.87;4.20;;;;;;;6.42;61.58;98446.13;2150940;83;21009;-80
2021/10/22 06:16:25;;;;;;;17.90;4.40;;;;;;;6.49;61.40;98450.59;2151862;83;21225;-80
2021/10/22 06:19:29;;;;;;;7.47;3.33;;;;;;;6.57;61.24;98451.64;2149842;83;20973;-80
2021/10/22 06:22:39;;;;;;;12.23;3.50;;;;;;;6.61;60.77;98440.91;2150174;82;20984;-79
2021/10/22 06:25:33;;;;;;;11.07;4.40;;;;;;;6.69;60.28;98454.91;2148934;82;21041;-79
2021/10/22 06:28:34;;;;;;;12.87;4.93;;;;;;;6.77;60.01;98459.84;2150353;83;20970;-81
2021/10/22 06:31:38;;;;;;;15.97;4.27;;;;;;;6.88;60.25;98455.73;2150448;83;21005;-80
2021/10/22 06:34:37;;;;;;;9.97;3.63;;;;;;;7.01;59.76;98461.66;2150630;82;20985;-79
2021/10/22 06:37:37;;;;;;;7.27;2.87;;;;;;;7.13;59.73;98467.51;2150978;83;21303;-80
2021/10/22 06:40:38;;;;;;;18.07;3.77;;;;;;;7.19;59.26;98468.05;2150326;83;20933;-78
2021/10/22 06:43:38;;;;;;;14.93;4.33;;;;;;;7.27;59.12;98469.06;2151500;83;20982;-81
2021/10/22 06:46:39;;;;;;;13.57;3.67;;;;;;;7.36;58.95;98457.55;2151526;83;20973;-79
2021/10/22 06:49:39;;;;;;;20.33;6.77;;;;;;;7.52;58.32;98469.09;2150961;83;20973;-79
2021/10/22 06:52:40;;;;;;;15.30;3.43;;;;;;;7.63;57.59;98471.03;2152047;83;20965;-80
2021/10/22 06:55:41;;;;;;;9.50;3.00;;;;;;;7.70;57.55;98470.72;2059009;86;21427;-80
2021/10/22 06:58:41;;;;;;;12.83;2.93;;;;;;;7.76;57.36;98473.41;2151936;82;21113;-80
2021/10/22 07:01:42;;;;;;;14.00;3.77;;;;;;;7.88;57.23;98481.45;2151681;83;20942;-80
2021/10/22 07:04:51;;;;;;;8.07;3.07;;;;;;;7.93;56.53;98482.40;2094520;85;21001;-80
2021/10/22 07:07:51;;;;;;;10.43;3.60;;;;;;;7.97;56.66;98484.63;2129656;84;21000;-81
2021/10/22 07:10:52;;;;;;;12.27;3.13;;;;;;;8.05;56.75;98488.64;2099689;85;21361;-79
2021/10/22 07:13:54;;;;;;;13.00;4.50;;;;;;;8.10;56.12;98496.97;2129606;84;20973;-77
2021/10/22 07:16:54;;;;;;;9.60;3.57;;;;;;;8.17;55.84;98493.61;2100327;85;21059;-79
2021/10/22 07:19:57;;;;;;;9.73;3.53;;;;;;;8.26;55.42;98505.88;2111274;84;20945;-79
2021/10/22 07:23:08;;;;;;;13.37;3.20;;;;;;;8.31;55.33;98510.30;2099941;85;21013;-79
2021/10/22 07:26:06;;;;;;;11.83;3.20;;;;;;;8.42;55.01;98510.92;2128890;83;20977;-79
2021/10/22 07:29:06;;;;;;;13.43;3.87;;;;;;;8.46;54.43;98512.72;2100289;85;21021;-80
2021/10/22 07:32:07;;;;;;;12.50;3.53;;;;;;;8.53;54.50;98519.76;2130330;84;20958;-80
2021/10/22 07:35:07;;;;;;;16.03;3.60;;;;;;;8.59;54.19;98514.64;2100074;85;20953;-79
2021/10/22 07:38:11;;;;;;;17.37;4.13;;;;;;;8.74;54.07;98528.33;2130332;84;20989;-80
2021/10/22 07:41:12;;;;;;;11.57;3.57;;;;;;;8.89;53.42;98526.81;2100390;85;21025;-80
2021/10/22 07:44:12;;;;;;;14.07;3.20;;;;;;;8.89;53.42;98526.81;2130330;84;21299;-79
2021/10/22 07:47:13;;;;;;;13.90;3.20;;;;;;;8.91;53.16;98522.50;2100560;85;21365;-79
2021/10/22 07:50:13;;;;;;;10.77;3.10;;;;;;;8.98;51.76;98525.19;2129474;84;20954;-80
2021/10/22 07:53:14;;;;;;;12.80;2.80;;;;;;;9.06;52.88;98511.84;2100490;85;21017;-79
2021/10/22 07:56:15;;;;;;;13.50;3.40;;;;;;;9.14;52.05;98517.59;2130099;84;20968;-80
2021/10/22 07:59:16;;;;;;;8.63;3.43;;;;;;;9.27;52.61;98521.20;2099615;85;20977;-80
2021/10/22 08:02:16;;;;;;;17.87;8.90;;;;;;;9.53;51.92;98521.07;2129958;84;20961;-79
2021/10/22 08:05:17;;;;;;;11.90;3.33;;;;;;;9.58;51.36;98541.58;2054666;85;21035;-79
2021/10/22 08:08:19;;;;;;;13.67;2.67;;;;;;;9.64;50.54;98550.31;2146058;83;20942;-79
2021/10/22 08:11:19;;;;;;;9.47;2.97;;;;;;;9.65;50.86;98549.45;2053860;85;21017;-80
2021/10/22 08:14:20;;;;;;;9.03;2.73;;;;;;;9.68;50.45;98545.15;2145998;82;20986;-80
2021/10/22 08:17:21;;;;;;;11.67;3.50;;;;;;;9.65;50.48;98555.55;2054006;87;21022;-80
2021/10/22 08:20:23;;;;;;;10.00;3.10;;;;;;;9.58;49.90;98552.42;2146263;82;21321;-79
2021/10/22 08:23:24;;;;;;;10.30;3.00;;;;;;;9.55;50.00;98548.48;2146115;83;20986;-80
2021/10/22 08:26:24;;;;;;;13.60;3.20;;;;;;;9.57;50.21;98547.64;2146803;83;21301;-80
2021/10/22 08:29:25;;;;;;;18.20;3.67;;;;;;;9.63;50.62;98539.02;2146487;83;20923;-80
2021/10/22 08:32:25;;;;;;;9.43;2.93;;;;;;;9.77;50.44;98539.16;2146330;82;20968;-80
2021/10/22 08:35:26;;;;;;;7.33;2.27;;;;;;;9.86;49.37;98549.67;2145932;83;20942;-81
2021/10/22 08:38:27;;;;;;;7.93;2.10;;;;;;;9.86;49.30;98541.86;2053329;87;20962;-82
2021/10/22 08:41:27;;;;;;;15.47;2.73;;;;;;;9.97;48.91;98553.27;2146204;83;20967;-79
2021/10/22 08:44:27;;;;;;;13.10;3.00;;;;;;;10.00;48.46;98552.41;2146008;82;21291;-81
2021/10/22 08:47:28;;;;;;;15.47;2.87;;;;;;;10.01;48.50;98554.16;2145831;83;20985;-80
2021/10/22 08:50:29;;;;;;;13.07;2.60;;;;;;;10.11;48.76;98555.99;2146605;82;20958;-81
2021/10/22 08:53:29;;;;;;;10.73;2.50;;;;;;;10.14;47.61;98554.29;2147405;82;20982;-81
2021/10/22 08:56:30;;;;;;;9.20;2.30;;;;;;;10.09;48.15;98562.50;2054864;87;20978;-80
2021/10/22 08:59:31;;;;;;;5.87;2.50;;;;;;;10.10;47.96;98559.03;2146846;82;21318;-79
2021/10/22 09:02:32;;;;;;;7.33;2.63;;;;;;;10.25;48.25;98556.15;2054598;87;20946;-80
2021/10/22 09:05:32;;;;;;;9.73;2.23;;;;;;;10.44;47.34;98569.39;2150788;82;20981;-81
2021/10/22 09:08:33;;;;;;;15.97;3.27;;;;;;;10.38;46.61;98563.22;2151349;83;20934;-79
2021/10/22 09:11:34;;;;;;;7.43;2.47;;;;;;;10.45;46.21;98556.78;2151379;83;21143;-80
2021/10/22 09:14:35;;;;;;;9.80;3.03;;;;;;;10.49;46.53;98553.77;2058582;87;20965;-80
2021/10/22 09:17:35;;;;;;;10.37;3.03;;;;;;;10.53;46.75;98555.11;2150406;83;20990;-79
2021/10/22 09:20:37;;;;;;;14.43;2.87;;;;;;;10.67;45.74;98565.64;2151223;83;20957;-79
2021/10/22 09:23:38;;;;;;;9.00;2.30;;;;;;;10.67;44.96;98562.16;2058630;87;20989;-80
2021/10/22 09:26:39;;;;;;;7.12;2.52;;;;;;;10.58;44.35;98553.83;2151516;82;21001;-79
2021/10/22 09:29:40;;;;;;;6.03;2.10;;;;;;;10.68;44.89;98553.03;2151086;83;20937;-80
2021/10/22 09:32:40;;;;;;;8.23;2.70;;;;;;;10.80;44.74;98553.55;2151278;83;21013;-81
2021/10/22 09:35:43;;;;;;;6.63;2.07;;;;;;;10.91;43.67;98551.00;2151370;83;21108;-80
2021/10/22 09:38:43;;;;;;;4.55;1.98;;;;;;;11.01;44.12;98556.71;2151177;83;21033;-79
2021/10/22 09:41:44;;;;;;;9.30;2.07;;;;;;;11.01;42.69;98550.19;2150919;83;20903;-80
2021/10/22 09:44:44;;;;;;;10.70;2.75;;;;;;;11.04;43.18;98550.20;2150610;83;20949;-81
2021/10/22 09:47:45;;;;;;;7.00;2.00;;;;;;;11.11;42.81;98555.89;2057927;87;21018;-79
2021/10/22 09:50:45;;;;;;;6.90;2.63;;;;;;;11.18;42.17;98557.67;2150597;82;20977;-81
2021/10/22 09:53:46;;;;;;;10.13;2.17;;;;;;;11.18;42.04;98545.91;2150507;83;21365;-79
2021/10/22 09:56:46;;;;;;;5.72;1.80;;;;;;;11.23;41.15;98558.56;2150922;83;20950;-81
2021/10/22 09:59:47;;;;;;;7.72;2.33;;;;;;;11.31;41.02;98550.80;2151399;83;20922;-80
2021/10/22 10:02:47;;;;;;;7.05;2.10;;;;;;;11.41;40.62;98544.73;2150870;83;20934;-79
2021/10/22 10:05:48;;;;;;;7.90;2.20;;;;;;;11.53;39.80;98553.05;2180306;82;20976;-78
2021/10/22 10:08:48;;;;;;;7.40;2.70;;;;;;;11.62;40.19;98543.94;2180840;82;21373;-81
2021/10/22 10:11:49;;;;;;;10.93;2.62;;;;;;;11.78;40.78;98524.83;2181486;82;20968;-79
2021/10/22 10:14:50;;;;;;;7.92;2.40;;;;;;;12.04;39.55;98545.80;2100878;85;20969;-79
2021/10/22 10:17:50;;;;;;;11.90;3.80;;;;;;;12.15;39.53;98528.39;2130497;83;20981;-80
2021/10/22 10:20:51;;;;;;;11.97;3.87;;;;;;;12.40;38.99;98537.99;2101000;85;21333;-79
2021/10/22 10:23:51;;;;;;;10.38;3.05;;;;;;;12.55;39.27;98524.02;2130632;84;21041;-79
2021/10/22 10:26:52;;;;;;;11.28;3.08;;;;;;;12.81;38.81;98518.73;2100250;85;20953;-79
2021/10/22 10:29:53;;;;;;;25.37;3.80;;;;;;;12.98;38.89;98512.14;2129545;84;20984;-78
2021/10/22 10:32:53;;;;;;;11.30;1.90;;;;;;;13.28;38.71;98502.92;2100051;85;20985;-80
2021/10/22 10:35:54;;;;;;;4.85;1.87;;;;;;;13.45;37.15;98513.33;2129910;84;20973;-79
2021/10/22 10:38:54;;;;;;;6.42;1.82;;;;;;;13.43;37.72;98498.48;2100923;85;20960;-79
2021/10/22 10:41:55;;;;;;;8.13;2.40;;;;;;;13.46;37.61;98499.78;2130508;84;21049;-80
2021/10/22 10:44:55;;;;;;;8.85;2.35;;;;;;;13.37;37.19;98484.52;2100743;85;20965;-80
2021/10/22 10:47:56;;;;;;;4.72;1.90;;;;;;;13.42;37.05;98481.01;2129501;84;21436;-79
2021/10/22 10:51:04;;;;;;;5.75;1.70;;;;;;;13.39;36.77;98482.77;2099812;85;20956;-79
2021/10/22 10:54:04;;;;;;;8.23;2.30;;;;;;;13.25;37.92;98470.17;2129370;84;20918;-79
2021/10/22 10:57:05;;;;;;;6.45;1.57;;;;;;;13.41;36.75;98470.96;2099782;85;20969;-79
2021/10/22 11:00:06;;;;;;;5.75;2.00;;;;;;;13.26;37.17;98466.67;2129409;84;20994;-79
2021/10/22 11:03:07;;;;;;;4.37;2.00;;;;;;;12.95;36.79;98476.78;2099996;85;20933;-80
2021/10/22 11:06:07;;;;;;;6.95;2.30;;;;;;;12.58;37.35;98469.47;2146584;82;21069;-79
2021/10/22 11:09:08;;;;;;;7.80;1.90;;;;;;;12.44;37.51;98468.19;2054104;87;21310;-80
2021/10/22 11:12:09;;;;;;;6.55;2.02;;;;;;;12.23;37.34;98467.77;2146980;82;20969;-80
2021/10/22 11:15:10;;;;;;;11.25;2.50;;;;;;;12.03;38.38;98466.88;2146352;83;20958;-80
2021/10/22 11:18:10;;;;;;;4.97;1.90;;;;;;;12.01;38.54;98475.16;2145689;82;20974;-80
2021/10/22 11:21:11;;;;;;;4.83;1.50;;;;;;;11.80;38.36;98469.48;2145439;83;21413;-80
2021/10/22 11:24:11;;;;;;;8.60;2.08;;;;;;;11.69;39.21;98468.56;2146287;83;21330;-80
2021/10/22 11:27:12;;;;;;;7.35;2.08;;;;;;;11.57;39.11;98460.27;2053665;87;20993;-80
2021/10/22 11:30:13;;;;;;;6.95;1.80;;;;;;;11.53;39.65;98462.88;2145610;82;20966;-78
2021/10/22 11:33:13;;;;;;;7.80;1.70;;;;;;;11.40;39.59;98460.67;2146406;83;20986;-77
2021/10/22 11:36:13;;;;;;;6.55;1.60;;;;;;;11.31;39.97;98453.68;2146162;82;20938;-80
2021/10/22 11:39:14;;;;;;;9.97;2.43;;;;;;;11.25;40.38;98454.06;2146019;83;21134;-79
2021/10/22 11:42:15;;;;;;;7.33;2.80;;;;;;;11.47;40.43;98454.59;2146052;83;21558;-79
2021/10/22 11:45:19;;;;;;;3.80;1.85;;;;;;;11.63;40.74;98450.26;2146470;83;21424;-80
2021/10/22 11:48:18;;;;;;;5.55;2.27;;;;;;;11.75;40.37;98458.98;2146157;83;21070;-79
2021/10/22 11:51:18;;;;;;;7.05;1.98;;;;;;;11.86;40.34;98439.85;2146893;82;21166;-80
2021/10/22 11:54:19;;;;;;;4.90;2.30;;;;;;;12.01;39.11;98438.54;2147378;83;20934;-81
2021/10/22 11:57:19;;;;;;;11.80;2.10;;;;;;;12.18;39.74;98445.98;2147202;82;21322;-79
2021/10/22 12:00:20;;;;;;;6.62;1.87;;;;;;;12.28;38.76;98443.78;2147162;83;20982;-81
2021/10/22 12:03:20;;;;;;;5.62;2.00;;;;;;;12.28;38.69;98435.06;2146052;82;20950;-79
2021/10/22 12:06:21;;;;;;;3.33;1.85;;;;;;;12.32;38.01;98435.48;2151311;83;20957;-80
2021/10/22 12:09:21;;;;;;;6.92;2.35;;;;;;;12.35;38.73;98436.80;2151081;83;20926;-79
2021/10/22 12:12:22;;;;;;;8.70;2.27;;;;;;;12.35;38.63;98435.05;2150988;83;20982;-79
2021/10/22 12:15:22;;;;;;;6.40;2.40;;;;;;;12.37;38.83;98428.06;2151702;83;21338;-81
2021/10/22 12:18:23;;;;;;;6.50;2.02;;;;;;;12.40;38.59;98420.20;2150838;83;20991;-81
2021/10/22 12:21:23;;;;;;;7.28;2.37;;;;;;;12.47;38.31;98424.98;2150660;83;20994;-80
2021/10/22 12:24:24;;;;;;;9.73;2.90;;;;;;;12.42;38.60;98430.67;2151101;83;20998;-79
2021/10/22 12:27:25;;;;;;;4.20;2.10;;;;;;;12.48;38.96;98418.88;2151542;83;20923;-79
2021/10/22 12:30:26;;;;;;;10.93;2.15;;;;;;;12.54;38.20;98415.37;2150616;83;20946;-79
2021/10/22 12:33:26;;;;;;;2.58;1.72;;;;;;;12.36;38.60;98431.99;2057829;87;21622;-79
2021/10/22 12:36:27;;;;;;;6.42;1.82;;;;;;;12.35;38.58;98419.34;2150657;82;21286;-81
2021/10/22 12:39:27;;;;;;;8.00;2.27;;;;;;;12.36;38.66;98409.31;2151289;83;21310;-80
2021/10/22 12:42:28;;;;;;;7.72;1.57;;;;;;;12.42;38.97;98417.14;2058499;87;20953;-80
2021/10/22 12:45:29;;;;;;;8.13;1.62;;;;;;;12.34;37.96;98398.41;2151088;83;20993;-80
2021/10/22 12:48:29;;;;;;;7.00;1.65;;;;;;;12.28;37.07;98414.13;2150130;83;21014;-79
2021/10/22 12:51:30;;;;;;;7.70;1.90;;;;;;;12.22;36.96;98410.21;2149915;83;20965;-81
2021/10/22 12:54:30;;;;;;;9.20;2.60;;;;;;;12.14;36.27;98412.84;2150118;83;21322;-81
2021/10/22 12:57:31;;;;;;;7.95;2.62;;;;;;;12.07;36.84;98415.86;2149644;83;21626;-80
2021/10/22 13:00:31;;;;;;;7.62;2.08;;;;;;;12.02;36.36;98399.30;2150063;83;20906;-80
2021/10/22 13:03:32;;;;;;;10.00;3.10;;;;;;;12.07;35.46;98411.07;2150238;83;20981;-80
2021/10/22 13:06:37;;;;;;;8.93;3.10;;;;;;;12.05;36.36;98404.53;2150186;82;21030;-80
2021/10/22 13:09:48;;;;;;;7.87;2.60;;;;;;;12.15;37.17;98401.94;2150628;83;20982;-80
2021/10/22 13:12:49;;;;;;;3.95;2.45;;;;;;;12.22;37.03;98402.36;2150707;82;21439;-79
2021/10/22 13:22:13;;;;;;;8.03;2.30;;;;;;;12.13;34.87;98413.68;2152082;83;20966;-81
2021/10/22 13:25:13;;;;;;;4.42;1.77;;;;;;;11.97;35.56;98402.36;2059185;87;20989;-81
2021/10/22 13:28:17;;;;;;;4.72;2.37;;;;;;;11.98;35.74;98403.23;2151765;82;20946;-81
2021/10/22 13:31:18;;;;;;;9.20;2.90;;;;;;;11.99;36.00;98396.69;2151414;82;21014;-82
2021/10/22 13:34:18;;;;;;;6.10;1.92;;;;;;;11.97;35.35;98393.20;2151556;83;21038;-81
2021/10/22 13:37:19;;;;;;;6.28;2.20;;;;;;;11.98;35.99;98398.88;2151436;83;20946;-83
2021/10/22 13:40:20;;;;;;;7.03;2.58;;;;;;;12.03;35.71;98387.97;2058859;87;20997;-81
2021/10/22 13:43:20;;;;;;;6.87;2.50;;;;;;;12.07;35.92;98377.06;2152666;82;20989;-82
2021/10/22 13:46:21;;;;;;;6.03;2.98;;;;;;;12.10;35.95;98375.31;2152521;83;20966;-81
2021/10/22 13:49:21;;;;;;;3.85;2.20;;;;;;;12.04;36.81;98379.24;2152374;83;21337;-81
2021/10/22 13:52:22;;;;;;;11.45;4.33;;;;;;;11.94;37.16;98387.98;2151226;83;21041;-81
2021/10/22 13:55:22;;;;;;;7.33;2.50;;;;;;;11.88;37.52;98380.14;2151390;83;20954;-81
2021/10/22 13:58:23;;;;;;;8.65;3.37;;;;;;;11.88;37.59;98373.59;2151557;83;20927;-84
2021/10/22 14:01:23;;;;;;;4.20;2.00;;;;;;;11.83;38.31;98376.66;2058657;87;20977;-82
2021/10/22 14:04:24;;;;;;;7.60;2.27;;;;;;;11.70;38.30;98382.29;2156911;82;21020;-81
2021/10/22 14:07:24;;;;;;;3.67;2.00;;;;;;;11.58;38.66;98380.98;2180414;82;21079;-83
2021/10/22 14:10:26;;;;;;;4.60;2.00;;;;;;;11.52;39.07;98371.83;2181259;82;21584;-82
2021/10/22 14:13:32;;;;;;;7.00;2.20;;;;;;;11.57;39.04;98378.36;2100724;85;21015;-81
2021/10/22 14:16:56;;;;;;;6.77;1.77;;;;;;;11.68;39.11;98383.16;2129994;83;21382;-82
2021/10/22 14:29:05;;;;;;;6.03;2.63;;;;;;;11.73;38.75;98375.75;2112863;84;21329;-82
2021/10/22 14:32:04;;;;;;;6.97;2.17;;;;;;;11.69;38.91;98378.37;2100469;85;21064;-81
2021/10/22 14:35:05;;;;;;;22.43;6.07;;;;;;;11.56;38.99;98374.01;2130919;84;20974;-79